Oil, Indiana
Current Conditions -  °F | °C
As of 12:35 AM on Friday 19 Dec 2014 (Local Time) from KHNB Reporting Station
Overcast Overcast  
Wind Chill: 25°   Ceiling: 7500
Heat Index: 30°   Visibility: 10mi
Dew Point: 23°   Wind: 5mph
Humidity: 75%   Direction: 360°N
Pressure: 30.27"   Gusts: NA
Location:  38.232°N, 86.6107°W
Report Text: KHNB 190635Z AUTO 36004KT 10SM OVC075 M01/M05 A3027 RMK AO1
Loading
Personal Weather Stations






























Interactive Weather Map New forecast layout! Learn more

10-Day Weather Forecast

Advertisements
Track Severe Weather on mobile